Time;durP1;ratioP1;P1;durP2;ratioP2;P2;SDS_P1;SDS_P2;PMS_P1;PMS_P2;Temp;Humidity;BMP_temperature;BMP_pressure;BME280_temperature;BME280_humidity;BME280_pressure;Samples;Min_cycle;Max_cycle;Signal;HPM_P1;HPM_P2
2022/01/31 00:00:16;;;;;;;12.27;2.00;;;;;;;5.63;41.98;99748.72;4455956;32;34865;-72
2022/01/31 00:02:49;;;;;;;11.25;2.42;;;;;;;5.35;41.85;99763.78;4443707;32;33331;-73
2022/01/31 00:05:17;;;;;;;13.38;2.35;;;;;;;5.63;41.91;99773.25;4465591;32;34313;-73
2022/01/31 00:07:45;;;;;;;12.75;2.50;;;;;;;5.39;42.23;99768.69;4455985;32;33709;-72
2022/01/31 00:10:17;;;;;;;12.18;2.20;;;;;;;5.04;43.03;99785.44;4468011;31;33399;-72
2022/01/31 00:12:54;;;;;;;13.50;3.07;;;;;;;5.19;43.03;99767.41;4474575;31;31914;-72
2022/01/31 00:15:23;;;;;;;14.57;2.40;;;;;;;4.90;43.20;99774.22;4473957;31;32144;-72
2022/01/31 00:17:51;;;;;;;13.10;2.58;;;;;;;4.97;43.23;99779.84;4486833;31;32703;-72
2022/01/31 00:20:21;;;;;;;11.30;2.37;;;;;;;5.13;42.90;99781.69;4461148;31;33347;-73
2022/01/31 00:22:48;;;;;;;11.25;2.15;;;;;;;5.07;42.99;99763.34;4486191;31;34019;-72
2022/01/31 00:25:18;;;;;;;10.52;2.20;;;;;;;5.11;42.47;99772.87;4473720;31;34571;-73
2022/01/31 00:27:47;;;;;;;11.25;2.10;;;;;;;4.90;42.80;99763.34;4471908;31;35239;-73
2022/01/31 00:30:16;;;;;;;8.88;2.10;;;;;;;5.08;42.37;99759.59;4471838;31;34629;-72
2022/01/31 00:32:44;;;;;;;11.95;2.67;;;;;;;5.23;42.00;99760.56;4472378;31;34065;-73
2022/01/31 00:35:11;;;;;;;13.82;2.67;;;;;;;5.35;41.67;99744.72;4486667;31;34474;-72
2022/01/31 00:37:42;;;;;;;14.25;2.78;;;;;;;5.61;41.10;99740.75;4486536;31;34324;-72
2022/01/31 00:40:12;;;;;;;9.82;2.00;;;;;;;5.13;42.22;99751.78;4473566;31;33680;-72
2022/01/31 00:42:40;;;;;;;10.45;2.12;;;;;;;5.26;41.35;99741.19;4486904;31;34185;-73
2022/01/31 00:47:39;;;;;;;8.07;2.20;;;;;;;5.06;41.71;99729.00;4486549;31;34553;-72
2022/01/31 00:50:12;;;;;;;7.28;1.85;;;;;;;4.99;42.08;99742.44;4487275;31;33937;-72
2022/01/31 00:52:42;;;;;;;15.07;2.67;;;;;;;5.42;41.32;99734.84;4486244;31;32752;-73
2022/01/31 00:55:11;;;;;;;12.68;2.47;;;;;;;5.43;40.85;99720.22;4470863;32;33655;-72
2022/01/31 00:57:40;;;;;;;9.65;1.92;;;;;;;5.14;41.52;99735.28;4444623;32;32771;-73
2022/01/31 01:00:09;;;;;;;5.32;1.83;;;;;;;5.75;40.42;99733.72;4470546;32;33856;-72
2022/01/31 01:02:38;;;;;;;9.25;2.53;;;;;;;5.29;41.27;99721.78;4457825;32;31689;-72
2022/01/31 01:05:06;;;;;;;7.65;2.05;;;;;;;5.44;41.11;99736.38;4471998;31;32374;-73
2022/01/31 01:07:33;;;;;;;8.57;1.92;;;;;;;5.51;40.86;99728.34;4486187;31;34075;-73
2022/01/31 01:10:03;;;;;;;11.57;2.55;;;;;;;5.38;40.78;99749.81;4473164;31;32383;-72
2022/01/31 01:12:30;;;;;;;11.85;2.72;;;;;;;5.38;40.79;99744.38;4486229;31;34027;-72
2022/01/31 01:14:58;;;;;;;11.70;1.60;;;;;;;5.78;40.16;99746.97;4473016;31;33187;-73
2022/01/31 01:17:29;;;;;;;14.30;2.40;;;;;;;5.56;40.22;99762.19;4473009;31;32851;-72
2022/01/31 01:19:57;;;;;;;13.85;2.20;;;;;;;5.87;39.91;99745.88;4460223;31;32618;-72
2022/01/31 01:22:24;;;;;;;13.20;2.50;;;;;;;5.67;40.15;99760.13;4485974;31;34043;-72
2022/01/31 01:24:57;;;;;;;15.90;2.10;;;;;;;5.45;40.83;99765.28;4486095;31;34197;-72
2022/01/31 01:27:28;;;;;;;7.55;1.95;;;;;;;5.40;40.59;99756.78;4500044;31;34108;-72
2022/01/31 01:29:57;;;;;;;11.40;1.85;;;;;;;5.33;40.82;99747.63;4486109;31;34827;-72
2022/01/31 01:32:28;;;;;;;11.45;2.78;;;;;;;5.31;41.03;99749.66;4486367;31;34213;-73
2022/01/31 01:35:00;;;;;;;10.10;2.22;;;;;;;5.31;40.86;99749.66;4486189;31;33696;-72
2022/01/31 01:37:28;;;;;;;9.85;2.10;;;;;;;5.54;40.16;99739.75;4461907;32;33102;-73
2022/01/31 01:39:58;;;;;;;10.05;2.20;;;;;;;5.42;40.53;99753.91;4456178;32;33403;-72
2022/01/31 01:42:28;;;;;;;13.52;2.28;;;;;;;5.51;40.18;99739.25;4473217;32;33850;-73
2022/01/31 01:44:57;;;;;;;12.43;2.40;;;;;;;5.51;40.13;99731.94;4446906;32;32460;-72
2022/01/31 01:47:25;;;;;;;10.75;2.15;;;;;;;5.71;39.89;99731.53;4472586;32;34318;-72
2022/01/31 01:49:56;;;;;;;10.63;2.33;;;;;;;5.79;39.65;99715.16;4459377;32;32938;-72
2022/01/31 01:52:25;;;;;;;10.77;2.12;;;;;;;5.50;39.98;99708.47;4479007;31;34011;-72
2022/01/31 01:54:56;;;;;;;13.15;2.33;;;;;;;5.54;39.75;99707.09;4475119;31;32023;-72
2022/01/31 01:57:24;;;;;;;11.50;2.25;;;;;;;5.21;40.57;99697.31;4488149;31;34208;-72
2022/01/31 01:59:57;;;;;;;14.13;1.98;;;;;;;5.39;40.31;99684.34;4488357;31;34697;-72
2022/01/31 02:02:25;;;;;;;9.80;2.33;;;;;;;5.32;40.45;99677.06;4488423;31;33186;-73
2022/01/31 02:04:56;;;;;;;10.82;2.28;;;;;;;5.47;40.13;99672.56;4475103;31;33181;-72
2022/01/31 02:07:24;;;;;;;11.02;2.55;;;;;;;5.58;39.96;99677.62;4488142;31;35234;-72
2022/01/31 02:09:56;;;;;;;12.15;2.53;;;;;;;5.38;40.19;99677.19;4502242;31;34054;-73
2022/01/31 02:12:25;;;;;;;13.62;2.62;;;;;;;5.22;40.73;99682.69;4488252;31;33318;-73
2022/01/31 02:14:58;;;;;;;9.63;1.92;;;;;;;4.94;41.18;99679.56;4475106;31;33756;-72
2022/01/31 02:17:27;;;;;;;15.10;2.75;;;;;;;5.20;41.34;99680.16;4474825;32;34667;-72
2022/01/31 02:19:56;;;;;;;12.05;2.42;;;;;;;4.92;41.84;99690.63;4457616;32;34627;-72
2022/01/31 02:22:24;;;;;;;6.30;1.62;;;;;;;5.00;41.72;99686.19;4458960;32;33341;-72
2022/01/31 02:24:58;;;;;;;14.80;3.03;;;;;;;5.10;41.75;99676.81;4459895;32;33124;-72
2022/01/31 02:27:28;;;;;;;8.70;1.83;;;;;;;5.04;42.19;99687.53;4472405;32;34439;-72
2022/01/31 02:29:56;;;;;;;12.52;2.20;;;;;;;5.15;42.17;99679.00;4459238;32;32734;-73
2022/01/31 02:32:25;;;;;;;15.02;3.37;;;;;;;5.69;46.91;99676.41;4459431;32;31932;-74
2022/01/31 02:34:57;;;;;;;11.27;2.20;;;;;;;6.24;40.06;99676.25;4459440;32;33644;-73
2022/01/31 02:37:24;;;;;;;13.15;2.28;;;;;;;6.18;40.12;99672.34;4472323;32;34428;-75
2022/01/31 02:39:56;;;;;;;13.07;2.25;;;;;;;6.29;39.47;99682.00;4472621;32;33942;-72
2022/01/31 02:42:28;;;;;;;13.98;2.10;;;;;;;6.45;52.70;99678.28;4459174;32;31776;-74
2022/01/31 02:44:56;;;;;;;16.42;2.80;;;;;;;5.99;40.70;99672.81;4459420;32;33685;-73
2022/01/31 02:47:32;;;;;;;13.40;2.12;;;;;;;5.52;41.40;99662.00;4472293;32;34487;-74
2022/01/31 02:50:08;;;;;;;11.17;3.13;;;;;;;5.50;41.65;99650.44;4472655;32;34082;-74
2022/01/31 02:52:37;;;;;;;17.25;2.72;;;;;;;5.33;41.87;99646.94;4476079;32;33244;-74
2022/01/31 02:55:14;;;;;;;13.50;2.05;;;;;;;5.55;41.39;99640.72;4501020;31;34744;-74
2022/01/31 02:57:43;;;;;;;10.88;2.95;;;;;;;5.54;41.18;99635.47;4488171;31;35410;-73
2022/01/31 03:00:15;;;;;;;13.27;3.40;;;;;;;5.21;41.69;99634.75;4475214;31;34192;-73
2022/01/31 03:02:43;;;;;;;11.10;2.35;;;;;;;5.25;41.89;99626.06;4461936;31;31946;-74
2022/01/31 03:05:18;;;;;;;13.95;1.83;;;;;;;5.28;41.70;99623.00;4475194;31;33632;-73
2022/01/31 03:07:48;;;;;;;14.73;2.40;;;;;;;5.10;41.98;99611.53;4502039;31;34247;-73
2022/01/31 03:10:24;;;;;;;9.45;2.25;;;;;;;5.25;41.50;99620.63;4488080;31;33978;-74
2022/01/31 03:13:00;;;;;;;10.23;2.60;;;;;;;5.19;41.69;99615.06;4475055;31;32960;-73
2022/01/31 03:15:32;;;;;;;11.75;2.47;;;;;;;5.31;41.31;99635.37;4488399;31;34909;-73
2022/01/31 03:18:09;;;;;;;13.05;2.45;;;;;;;5.01;42.14;99633.50;4488728;31;34526;-74
2022/01/31 03:20:40;;;;;;;11.90;2.60;;;;;;;4.86;41.89;99628.75;4461775;31;32831;-73
2022/01/31 03:23:13;;;;;;;13.82;2.05;;;;;;;4.95;42.13;99627.72;4474562;31;32785;-74
2022/01/31 03:25:50;;;;;;;13.30;2.47;;;;;;;5.23;41.45;99630.81;4487879;31;33841;-73
2022/01/31 03:28:22;;;;;;;9.65;2.03;;;;;;;5.03;41.77;99615.97;4501644;31;33409;-74
2022/01/31 03:30:56;;;;;;;10.77;1.98;;;;;;;5.24;41.59;99621.63;4487512;31;33876;-73
2022/01/31 03:33:33;;;;;;;7.80;1.50;;;;;;;5.36;41.37;99615.81;4487787;31;33456;-73
2022/01/31 03:36:06;;;;;;;12.23;2.42;;;;;;;5.29;41.28;99623.84;4488250;31;33729;-74
2022/01/31 03:38:40;;;;;;;10.27;2.05;;;;;;;4.95;41.89;99611.41;4474405;31;34064;-73
2022/01/31 03:41:12;;;;;;;11.85;2.12;;;;;;;5.31;40.94;99613.63;4488563;31;33907;-73
2022/01/31 03:43:40;;;;;;;9.60;2.20;;;;;;;5.39;41.00;99607.28;4474552;31;34013;-73
2022/01/31 03:46:11;;;;;;;15.82;2.65;;;;;;;5.59;40.47;99601.22;4461606;31;33873;-73
2022/01/31 03:48:43;;;;;;;15.15;2.65;;;;;;;5.32;41.06;99619.91;4487519;31;34514;-73
2022/01/31 03:51:17;;;;;;;17.50;2.72;;;;;;;5.06;41.25;99606.63;4487796;31;34128;-73
2022/01/31 03:53:48;;;;;;;9.70;2.60;;;;;;;5.35;40.60;99605.94;4487411;31;33229;-74
2022/01/31 03:56:25;;;;;;;15.52;2.67;;;;;;;5.42;40.17;99617.81;4487726;31;34483;-74
2022/01/31 03:59:01;;;;;;;14.30;2.85;;;;;;;5.40;39.82;99607.13;4462192;31;33051;-74
2022/01/31 04:01:31;;;;;;;14.73;2.75;;;;;;;5.24;40.16;99601.75;4487290;31;33885;-73
2022/01/31 04:04:05;;;;;;;13.23;2.80;;;;;;;5.35;39.71;99593.19;4473996;31;31971;-74
2022/01/31 04:06:35;;;;;;;13.48;2.95;;;;;;;5.20;39.64;99592.28;4474386;31;32679;-73
2022/01/31 04:09:08;;;;;;;15.02;2.90;;;;;;;5.55;39.12;99578.12;4474030;31;34576;-73
2022/01/31 04:11:41;;;;;;;12.45;2.65;;;;;;;5.81;39.13;99577.78;4473865;31;33429;-73
2022/01/31 04:14:13;;;;;;;13.77;2.55;;;;;;;5.80;38.73;99586.97;4487770;31;34234;-73
2022/01/31 04:16:40;;;;;;;16.95;2.62;;;;;;;5.49;39.44;99569.81;4474047;31;32480;-74
2022/01/31 04:19:14;;;;;;;13.60;2.78;;;;;;;5.60;39.18;99569.41;4487056;31;34433;-73
2022/01/31 04:21:46;;;;;;;9.25;1.70;;;;;;;5.44;39.54;99566.78;4461230;31;32476;-73
2022/01/31 04:24:23;;;;;;;11.82;2.55;;;;;;;5.41;39.09;99554.38;4501236;31;33264;-73
2022/01/31 04:26:59;;;;;;;;;;;;;;;5.19;39.24;99571.53;4474644;31;33629;-73
2022/01/31 04:29:40;;;;;;;9.63;2.42;;;;;;;5.35;38.72;99552.37;4488244;31;34241;-73
2022/01/31 04:32:21;;;;;;;12.30;2.42;;;;;;;5.32;38.94;99547.28;4474769;31;33482;-73
2022/01/31 04:34:49;;;;;;;10.43;2.67;;;;;;;5.40;38.76;99546.41;4473653;31;31822;-73
2022/01/31 04:37:18;;;;;;;9.80;2.05;;;;;;;5.17;39.32;99560.00;4474337;31;32644;-73
2022/01/31 04:39:52;;;;;;;14.55;2.67;;;;;;;5.32;39.15;99560.06;4473919;31;33073;-74
2022/01/31 04:42:25;;;;;;;11.77;2.15;;;;;;;5.42;39.08;99561.53;4486882;31;34769;-74
2022/01/31 04:45:01;;;;;;;10.60;2.30;;;;;;;5.46;39.13;99572.91;4487393;31;33894;-73
2022/01/31 04:47:31;;;;;;;18.52;2.55;;;;;;;5.68;38.66;99565.78;4473520;31;33243;-73
2022/01/31 04:50:01;;;;;;;12.48;2.20;;;;;;;5.67;38.45;99548.59;4473753;31;34519;-74
2022/01/31 04:52:35;;;;;;;13.07;2.58;;;;;;;5.13;39.59;99536.87;4486201;31;34151;-74
2022/01/31 04:55:06;;;;;;;;;;;;;;;5.22;39.52;99528.47;4486792;31;31777;-73
2022/01/31 04:57:41;;;;;;;10.82;2.50;;;;;;;5.00;39.97;99532.00;4500859;31;33620;-73
2022/01/31 05:00:10;;;;;;;15.88;2.35;;;;;;;5.23;39.39;99516.56;4485875;31;33017;-73
2022/01/31 05:02:45;;;;;;;14.13;3.00;;;;;;;5.54;38.88;99521.97;4457991;32;33786;-73
2022/01/31 05:05:16;;;;;;;12.02;2.45;;;;;;;5.66;38.62;99530.59;4459773;31;31680;-73
2022/01/31 05:07:46;;;;;;;11.65;2.45;;;;;;;5.68;38.75;99536.69;4470642;32;33999;-73
2022/01/31 05:10:19;;;;;;;10.88;2.30;;;;;;;5.53;39.30;99542.06;4485854;31;34616;-73
2022/01/31 05:12:54;;;;;;;13.38;2.50;;;;;;;5.50;39.46;99542.44;4480825;32;33617;-73
2022/01/31 05:15:44;;;;;;;13.48;2.75;;;;;;;5.57;39.47;99537.09;4474960;32;33350;-73
2022/01/31 05:18:15;;;;;;;10.20;2.45;;;;;;;5.34;40.05;99533.50;4474389;31;33906;-73
2022/01/31 05:20:42;;;;;;;11.32;2.70;;;;;;;5.15;40.37;99537.56;4502583;31;34439;-73
2022/01/31 05:23:17;;;;;;;13.38;2.12;;;;;;;4.90;41.00;99531.38;4475462;31;33424;-72
2022/01/31 05:25:47;;;;;;;10.40;2.47;;;;;;;4.94;41.12;99530.00;4475801;31;32471;-72
2022/01/31 05:28:17;;;;;;;11.02;2.50;;;;;;;5.18;40.53;99520.87;4488786;31;33579;-72
2022/01/31 05:30:44;;;;;;;12.15;2.30;;;;;;;5.14;40.58;99511.38;4475378;31;35402;-73
2022/01/31 05:33:18;;;;;;;14.38;2.40;;;;;;;4.99;40.94;99502.28;4475440;31;32373;-70
2022/01/31 05:35:45;;;;;;;9.52;2.20;;;;;;;5.36;40.81;99486.03;4488460;31;33229;-73
2022/01/31 05:38:18;;;;;;;13.07;2.55;;;;;;;5.79;41.78;99470.91;4487718;31;33659;-73
2022/01/31 05:40:45;;;;;;;11.48;2.47;;;;;;;5.41;40.36;99482.78;4462200;31;32904;-73
2022/01/31 05:43:16;;;;;;;7.40;2.10;;;;;;;5.49;40.00;99472.69;4487543;31;33426;-72
2022/01/31 05:45:43;;;;;;;8.73;2.22;;;;;;;5.58;40.16;99466.16;4474903;31;32877;-73
2022/01/31 05:48:20;;;;;;;15.10;2.37;;;;;;;5.47;40.46;99461.13;4487976;31;34802;-72
2022/01/31 05:50:52;;;;;;;13.05;2.20;;;;;;;5.63;40.06;99468.31;4475608;31;35143;-73
2022/01/31 05:53:21;;;;;;;10.95;2.28;;;;;;;5.55;40.29;99455.62;4488300;31;33966;-73
2022/01/31 05:55:49;;;;;;;15.55;2.08;;;;;;;5.48;40.41;99468.28;4488150;31;33271;-73
2022/01/31 05:58:16;;;;;;;12.05;2.30;;;;;;;5.29;41.01;99475.03;4474768;31;33499;-73
2022/01/31 06:00:46;;;;;;;13.98;3.33;;;;;;;5.17;41.28;99470.22;4475036;31;32893;-72
2022/01/31 06:03:19;;;;;;;15.75;2.85;;;;;;;5.18;41.48;99471.91;4471185;32;32546;-73
2022/01/31 06:05:50;;;;;;;12.68;2.78;;;;;;;5.25;41.33;99464.69;4484069;32;34213;-73
2022/01/31 06:08:23;;;;;;;10.65;2.80;;;;;;;5.41;41.14;99461.84;4468707;31;32218;-73
2022/01/31 06:10:53;;;;;;;12.63;2.37;;;;;;;5.52;41.00;99457.88;4474792;31;33538;-73
2022/01/31 06:13:30;;;;;;;20.37;4.97;;;;;;;5.36;41.40;99475.16;4500201;31;33824;-73
2022/01/31 06:15:58;;;;;;;14.90;2.97;;;;;;;5.07;42.08;99469.59;4473336;31;32589;-73
2022/01/31 06:18:29;;;;;;;16.42;3.10;;;;;;;5.05;42.04;99472.50;4473449;31;34534;-73
2022/01/31 06:20:59;;;;;;;21.02;4.15;;;;;;;5.16;41.99;99482.13;4500773;31;35061;-73
2022/01/31 06:23:29;;;;;;;14.18;2.85;;;;;;;5.21;42.03;99472.38;4487279;31;33628;-72
2022/01/31 06:26:00;;;;;;;11.43;2.42;;;;;;;5.22;41.95;99475.94;4487271;31;33768;-72
2022/01/31 06:28:34;;;;;;;10.63;3.40;;;;;;;5.02;42.35;99469.28;4501829;31;34340;-73
2022/01/31 06:31:10;;;;;;;25.45;4.12;;;;;;;5.04;42.41;99469.94;4488950;31;34607;-73
2022/01/31 06:33:43;;;;;;;13.45;3.08;;;;;;;5.01;42.47;99470.31;4474803;31;33922;-73
2022/01/31 06:36:16;;;;;;;20.83;2.97;;;;;;;5.50;43.63;99470.81;4475975;31;33297;-72
2022/01/31 06:38:46;;;;;;;13.90;2.60;;;;;;;4.94;42.79;99460.16;4487757;31;33693;-72
2022/01/31 06:41:16;;;;;;;15.30;3.22;;;;;;;4.98;42.57;99444.31;4474526;31;34067;-73
2022/01/31 06:43:47;;;;;;;13.80;3.10;;;;;;;5.15;42.52;99443.19;4488062;31;34148;-72
2022/01/31 06:46:17;;;;;;;21.83;4.53;;;;;;;5.24;42.48;99443.94;4474766;31;32759;-73
2022/01/31 06:48:52;;;;;;;19.42;3.53;;;;;;;5.40;42.31;99443.84;4474711;31;33039;-71
2022/01/31 06:51:28;;;;;;;14.18;2.65;;;;;;;5.45;41.98;99435.97;4488334;31;34298;-72
2022/01/31 06:53:57;;;;;;;13.02;2.95;;;;;;;5.35;42.47;99439.97;4488353;31;33962;-72
2022/01/31 06:56:38;;;;;;;18.15;2.67;;;;;;;5.47;42.38;99436.63;4501803;31;33354;-72
2022/01/31 06:59:07;;;;;;;8.60;2.33;;;;;;;5.71;42.02;99423.84;4487951;31;33524;-72
2022/01/31 07:01:37;;;;;;;14.45;3.22;;;;;;;5.58;42.30;99419.03;4474384;31;33518;-73
2022/01/31 07:04:07;;;;;;;10.27;2.65;;;;;;;5.78;42.24;99417.50;4487476;31;34008;-72
2022/01/31 07:06:38;;;;;;;20.45;3.37;;;;;;;5.97;42.23;99402.50;4487989;31;33705;-72
2022/01/31 07:09:12;;;;;;;16.52;3.33;;;;;;;6.16;41.92;99385.59;4501651;31;33877;-72
2022/01/31 07:11:47;;;;;;;15.80;3.42;;;;;;;6.00;41.70;99383.06;4487925;31;34321;-72
2022/01/31 07:14:31;;;;;;;17.55;3.17;;;;;;;6.32;41.46;99383.72;4488644;31;34223;-73
2022/01/31 07:17:05;;;;;;;18.40;3.28;;;;;;;6.50;41.25;99395.88;4487433;31;33988;-73
2022/01/31 07:19:36;;;;;;;13.55;2.87;;;;;;;6.66;40.89;99400.28;4472943;31;34364;-72
2022/01/31 07:22:14;;;;;;;16.05;4.18;;;;;;;6.77;41.45;99399.78;4473022;31;32758;-72
2022/01/31 07:25:20;;;;;;;14.73;3.67;;;;;;;6.90;41.19;99399.94;4487112;31;34380;-73
2022/01/31 07:27:43;;;;;;;13.60;3.80;;;;;;;6.99;41.14;99388.94;4489559;31;33611;-73
2022/01/31 07:30:15;;;;;;;24.95;3.37;;;;;;;6.66;40.83;99396.72;4474512;31;34460;-73
2022/01/31 07:32:51;;;;;;;14.35;3.65;;;;;;;6.84;40.37;99394.41;4487325;31;33082;-73
2022/01/31 07:35:27;;;;;;;14.13;2.83;;;;;;;6.72;40.75;99388.63;4487177;31;32486;-73
2022/01/31 07:37:55;;;;;;;13.50;2.83;;;;;;;6.50;40.72;99376.81;4486511;31;31742;-73
2022/01/31 07:40:23;;;;;;;16.75;3.50;;;;;;;6.58;40.92;99365.78;4470748;32;34487;-73
2022/01/31 07:43:05;;;;;;;15.82;3.17;;;;;;;6.68;40.84;99368.22;4459494;31;32966;-73
2022/01/31 07:46:06;;;;;;;19.80;3.70;;;;;;;6.49;41.30;99366.13;4476468;31;32895;-73
2022/01/31 07:48:59;;;;;;;10.93;2.70;;;;;;;6.35;41.62;99361.53;4475437;31;33400;-73
2022/01/31 07:51:36;;;;;;;17.65;2.90;;;;;;;6.52;41.30;99363.84;4462401;31;33535;-73
2022/01/31 07:54:05;;;;;;;25.15;3.75;;;;;;;6.57;41.07;99355.94;4496846;31;34224;-73
2022/01/31 07:56:35;;;;;;;18.20;3.28;;;;;;;6.64;41.40;99366.06;4500243;31;33958;-73
2022/01/31 07:59:11;;;;;;;17.98;3.92;;;;;;;6.61;41.35;99372.75;4501694;31;34159;-73
2022/01/31 08:01:46;;;;;;;19.70;4.03;;;;;;;6.69;41.43;99380.81;4487917;31;33110;-73
2022/01/31 08:04:17;;;;;;;14.07;3.72;;;;;;;6.91;41.09;99374.38;4493479;31;35326;-73
2022/01/31 08:06:48;;;;;;;14.87;3.90;;;;;;;7.06;41.27;99357.94;4460870;31;32375;-73
2022/01/31 08:09:21;;;;;;;13.40;3.60;;;;;;;6.96;41.30;99360.16;4487472;31;31747;-73
2022/01/31 08:14:33;;;;;;;19.42;3.95;;;;;;;6.75;42.28;99350.06;4499866;31;34984;-73
2022/01/31 08:17:10;;;;;;;16.25;3.90;;;;;;;6.61;42.46;99346.31;4500079;31;34240;-73
2022/01/31 08:19:44;;;;;;;16.33;4.12;;;;;;;6.58;42.66;99338.53;4487076;31;32735;-73
2022/01/31 08:22:32;;;;;;;15.50;3.90;;;;;;;6.47;43.25;99335.47;4489284;31;32311;-73
2022/01/31 08:25:15;;;;;;;17.92;4.43;;;;;;;6.79;44.44;99332.28;4475223;31;34516;-73
2022/01/31 08:28:00;;;;;;;15.43;4.45;;;;;;;6.60;43.38;99327.44;4487584;31;32396;-73
2022/01/31 08:33:43;;;;;;;19.27;4.20;;;;;;;6.54;43.71;99325.47;4501184;31;33766;-73
2022/01/31 08:36:14;;;;;;;13.98;3.25;;;;;;;6.90;43.09;99326.31;4500010;31;34487;-73
2022/01/31 08:38:52;;;;;;;17.20;3.05;;;;;;;6.75;43.03;99335.56;4486519;31;34602;-73
2022/01/31 08:41:31;;;;;;;15.88;4.28;;;;;;;6.78;42.95;99337.91;4475334;31;32029;-73
2022/01/31 08:44:08;;;;;;;16.50;3.25;;;;;;;6.82;43.53;99334.59;4474981;31;33717;-73
2022/01/31 08:46:39;;;;;;;15.15;3.83;;;;;;;6.98;42.46;99322.59;4486446;31;32820;-73
2022/01/31 08:49:10;;;;;;;15.82;3.87;;;;;;;6.91;42.50;99329.87;4500219;31;33552;-73
2022/01/31 08:51:41;;;;;;;12.52;3.42;;;;;;;7.08;42.46;99327.72;4501528;31;34126;-73
2022/01/31 08:54:10;;;;;;;11.32;3.35;;;;;;;7.09;42.66;99323.97;4488339;31;34003;-73
2022/01/31 08:56:45;;;;;;;12.60;3.42;;;;;;;7.20;42.74;99316.06;4489286;31;33972;-73
2022/01/31 08:59:18;;;;;;;12.40;3.12;;;;;;;7.02;42.59;99323.06;4502205;31;33973;-73
2022/01/31 09:01:54;;;;;;;12.88;3.33;;;;;;;6.89;42.98;99316.44;4501164;31;33273;-73
2022/01/31 09:04:33;;;;;;;17.95;3.22;;;;;;;6.69;43.38;99314.53;4501531;31;33117;-73
2022/01/31 09:07:05;;;;;;;17.77;4.15;;;;;;;6.70;43.98;99316.22;4502502;31;35267;-73
2022/01/31 09:09:33;;;;;;;13.23;3.03;;;;;;;6.42;44.17;99305.22;4501764;31;34070;-73
2022/01/31 09:12:06;;;;;;;20.20;3.00;;;;;;;6.75;43.62;99303.69;4488849;31;33433;-72
2022/01/31 09:14:35;;;;;;;13.65;3.37;;;;;;;6.50;43.97;99300.47;4502785;31;33682;-73
2022/01/31 09:17:08;;;;;;;14.68;3.62;;;;;;;7.11;43.11;99303.62;4488700;31;34717;-73
2022/01/31 09:19:39;;;;;;;12.05;3.60;;;;;;;7.02;42.96;99298.50;4488676;31;33811;-73
2022/01/31 09:22:09;;;;;;;14.23;3.05;;;;;;;7.08;42.31;99297.72;4502584;31;34057;-73
2022/01/31 09:24:38;;;;;;;14.80;3.33;;;;;;;6.98;42.37;99303.50;4502563;31;34566;-73
2022/01/31 09:27:07;;;;;;;12.35;3.20;;;;;;;7.26;42.16;99295.34;4488357;31;34276;-73
2022/01/31 09:29:35;;;;;;;13.90;2.80;;;;;;;6.91;42.62;99295.25;4488064;31;32484;-73
2022/01/31 09:32:04;;;;;;;13.73;3.08;;;;;;;6.90;42.65;99290.84;4475217;31;33655;-74
2022/01/31 09:34:37;;;;;;;12.00;3.03;;;;;;;7.26;41.81;99276.22;4488329;31;33230;-73
2022/01/31 09:37:12;;;;;;;;;;;;;;;7.49;45.75;99268.63;4476094;31;32814;-73
2022/01/31 09:39:42;;;;;;;10.73;2.92;;;;;;;7.37;41.29;99262.03;4475366;31;33816;-73
2022/01/31 09:42:15;;;;;;;21.52;3.35;;;;;;;7.35;41.59;99250.47;4475440;31;33201;-73
2022/01/31 09:45:08;;;;;;;15.93;3.92;;;;;;;7.26;41.51;99230.69;4488876;31;34614;-73
2022/01/31 09:50:27;;;;;;;18.35;4.50;;;;;;;7.47;41.09;99229.78;4490096;31;34029;-73
2022/01/31 09:52:55;;;;;;;11.90;3.95;;;;;;;7.63;40.91;99225.88;4488442;31;33966;-73
2022/01/31 09:55:25;;;;;;;14.60;3.35;;;;;;;7.59;40.79;99219.97;4471414;32;33291;-73
2022/01/31 09:57:56;;;;;;;14.05;3.15;;;;;;;7.72;40.49;99204.72;4498963;31;35360;-73
2022/01/31 10:00:31;;;;;;;14.05;3.05;;;;;;;7.90;39.69;99207.72;4501128;31;33941;-73
2022/01/31 10:03:09;;;;;;;14.63;2.83;;;;;;;7.99;39.17;99201.03;4486991;31;33769;-73
2022/01/31 10:05:38;;;;;;;15.52;3.60;;;;;;;7.96;39.14;99195.13;4474217;31;33171;-73
2022/01/31 10:08:17;;;;;;;14.05;2.83;;;;;;;8.20;39.24;99187.22;4495028;31;33420;-73
2022/01/31 10:10:47;;;;;;;14.82;2.97;;;;;;;7.95;38.83;99188.81;4487033;31;34862;-73
2022/01/31 10:16:28;;;;;;;15.68;3.50;;;;;;;8.32;38.07;99181.16;4489605;31;34448;-73
2022/01/31 10:19:05;;;;;;;11.90;3.20;;;;;;;8.08;40.11;99180.66;4501282;31;34444;-73
2022/01/31 10:21:53;;;;;;;16.42;4.37;;;;;;;8.13;38.95;99172.69;4487390;31;34756;-73
2022/01/31 10:24:22;;;;;;;20.42;6.50;;;;;;;8.25;38.64;99182.00;4486895;31;34133;-73
2022/01/31 10:26:51;;;;;;;15.35;3.17;;;;;;;8.03;39.17;99160.47;4473954;31;33212;-73
2022/01/31 10:29:24;;;;;;;15.00;4.00;;;;;;;8.02;38.46;99151.44;4487356;31;34390;-73
2022/01/31 10:32:05;;;;;;;11.73;3.60;;;;;;;8.17;38.18;99129.41;4471963;31;33298;-73
2022/01/31 10:34:36;;;;;;;14.13;4.85;;;;;;;8.03;38.60;99131.25;4487030;31;31804;-73
2022/01/31 10:37:13;;;;;;;13.75;3.78;;;;;;;8.15;38.64;99131.50;4487545;31;33648;-73
2022/01/31 10:56:57;;;;;;;20.17;3.70;;;;;;;8.30;38.29;99095.78;4487707;31;32230;-73
2022/01/31 10:59:42;;;;;;;11.95;3.28;;;;;;;8.46;37.96;99078.97;4487457;31;33589;-73
2022/01/31 11:02:18;;;;;;;9.50;2.78;;;;;;;8.23;38.37;99082.09;4488073;31;34228;-73
2022/01/31 11:04:54;;;;;;;19.35;4.95;;;;;;;8.04;38.53;99082.91;4487464;31;33437;-73
2022/01/31 11:07:25;;;;;;;14.57;4.93;;;;;;;7.73;38.89;99081.59;4476956;31;31576;-72
2022/01/31 11:09:56;;;;;;;22.30;7.07;;;;;;;7.91;39.02;99081.00;4476591;31;32125;-73
2022/01/31 11:12:30;;;;;;;19.60;6.32;;;;;;;8.25;38.44;99067.19;4487731;31;34698;-73
2022/01/31 11:14:58;;;;;;;16.95;7.15;;;;;;;8.25;37.99;99072.63;4475085;31;34992;-72
2022/01/31 11:17:25;;;;;;;11.60;3.92;;;;;;;8.53;38.06;99063.41;4487717;31;33252;-73
2022/01/31 11:19:59;;;;;;;9.85;3.35;;;;;;;8.35;37.88;99049.56;4502277;31;33682;-73
2022/01/31 11:22:37;;;;;;;8.45;2.62;;;;;;;8.57;37.17;99020.91;4480001;32;34566;-73
2022/01/31 11:25:16;;;;;;;12.60;3.50;;;;;;;8.10;37.92;99014.59;4487738;31;34374;-73
2022/01/31 11:28:02;;;;;;;10.73;2.40;;;;;;;8.58;37.11;98990.59;4488388;31;33014;-73
2022/01/31 11:30:33;;;;;;;18.40;3.60;;;;;;;8.51;36.99;98986.19;4487637;31;33399;-73
2022/01/31 11:33:05;;;;;;;13.77;4.22;;;;;;;8.39;37.68;98972.37;4487371;31;34281;-73
2022/01/31 11:35:36;;;;;;;15.90;3.20;;;;;;;8.49;37.60;98969.16;4474684;31;33005;-74
2022/01/31 11:38:04;;;;;;;15.75;3.10;;;;;;;8.38;37.52;98962.47;4487878;31;33974;-73
2022/01/31 11:40:31;;;;;;;19.65;5.00;;;;;;;8.35;37.67;98975.72;4474634;31;33587;-73
2022/01/31 11:43:01;;;;;;;19.62;5.43;;;;;;;8.48;37.52;98975.69;4474574;31;34356;-73
2022/01/31 11:45:34;;;;;;;15.55;4.10;;;;;;;8.84;37.14;98973.28;4487614;31;34212;-73
2022/01/31 11:48:25;;;;;;;13.98;3.33;;;;;;;8.75;36.44;98980.06;4473136;31;34172;-73
2022/01/31 11:50:56;;;;;;;10.68;2.97;;;;;;;8.48;37.30;98957.37;4472056;31;33754;-73
2022/01/31 11:53:36;;;;;;;12.30;3.40;;;;;;;8.90;36.71;98925.06;4501517;31;35267;-73
2022/01/31 11:56:20;;;;;;;12.45;2.85;;;;;;;9.12;37.07;98906.41;4487398;31;33857;-73
2022/01/31 11:58:53;;;;;;;20.88;3.83;;;;;;;9.21;36.88;98921.53;4488014;31;33502;-72
2022/01/31 12:01:22;;;;;;;17.85;4.20;;;;;;;9.14;36.57;98937.16;4487354;31;32231;-73
2022/01/31 12:04:00;;;;;;;12.55;2.95;;;;;;;8.83;37.01;98943.41;4501648;31;34393;-73
2022/01/31 12:06:39;;;;;;;11.63;3.50;;;;;;;8.93;37.03;98937.47;4488701;31;34706;-73
2022/01/31 12:09:12;;;;;;;15.40;3.45;;;;;;;8.89;36.76;98918.75;4487222;31;31591;-73
2022/01/31 12:12:10;;;;;;;11.07;3.65;;;;;;;8.55;37.14;98939.06;4470279;32;34338;-73
2022/01/31 12:15:06;;;;;;;15.05;3.53;;;;;;;8.70;36.98;98957.97;4484324;32;34102;-73
2022/01/31 12:23:54;;;;;;;11.60;2.58;;;;;;;8.30;38.33;98954.47;4476105;31;32570;-73
2022/01/31 12:26:46;;;;;;;12.65;2.85;;;;;;;8.23;38.64;98946.28;4474382;31;35200;-73
2022/01/31 12:29:16;;;;;;;13.57;2.25;;;;;;;8.10;38.14;98935.34;4486593;31;32507;-73
2022/01/31 12:31:46;;;;;;;11.00;2.35;;;;;;;8.19;38.49;98942.28;4501335;31;33798;-73
2022/01/31 12:34:17;;;;;;;9.65;3.15;;;;;;;8.32;38.44;98924.19;4474331;31;33760;-73
2022/01/31 12:36:45;;;;;;;13.48;2.80;;;;;;;8.34;37.60;98898.34;4486914;31;34316;-73